Terminal Aerodrome Forecast
Issued by NWS Cleveland, OH

Home | Current Version | Previous Version | Text Only | Print | Product List | Glossary On
Versions: 1 2 3 4 5 6 7 8 9 10 11 12 13 14 15 16 17 18 19 20 21 22 23 24
893
FTUS41 KCLE 301427 AAB
TAFTOL
TAF AMD
KTOL 301427Z 3014/0112 09010KT P6SM OVC008
     FM301600 12010KT P6SM OVC012
     FM301800 15012KT P6SM BKN035 OVC080
     FM302200 21010G20KT 4SM SHRA OVC025=

USA.gov is the U.S. government's official web portal to all federal, state and local government web resources and services.